Pendleton, OR

08:30:PDT den 31. Oktober 2014 (GMT -0700)
Hermiston Municipal | Change Station
CLOSE
Current Station
Flyplass
Location: Hermiston,
Høyde over havet: 640 ft
Nearby Weather Stations

H.o.h 640 ft 45.83 °N, 119.26 °W | Updated 15 minutes ago

For det meste skyet
For det meste skyet
49 °F
Feels Like 49 °F
N
5
Vind Variabel Vind from ØNØ

I dag
High -- | Low -- °F
--% Chance of Precip.
I går
High -- | Low -- °F
Precip. -- tommer
7:33 AM 5:43 PM
Første kvarter, 56% visible
Lufttrykk 29.72 tommer
Sikt 2.0 eng. mil
Skyet Overskyet 10000 ft
Duggpunkt 47 °F
Fuktighet 93%
Regn 0.00 tommer
Snødybde Not available.
UV 0 av 12
Pollen 1.40 av 12
Luftkvalitet Not available.
Flu Activity Not available.
SPECI KHRI 311515Z AUTO 06004KT 2SM -RA BR OVC100 09/08 A2972 RMK AO2 P0000 T00940083

More Conditions Fewer Conditions

Lufttrykk 29.72 tommer
Sikt 2.0 eng. mil
Skyet Overskyet 10000 ft
Duggpunkt 47 °F
Fuktighet 93%
Regn 0.00 tommer
Snødybde Not available.
UV 0 av 12
Pollen 1.40 av 12
Luftkvalitet Not available.
Flu Activity Not available.
SPECI KHRI 311515Z AUTO 06004KT 2SM -RA BR OVC100 09/08 A2972 RMK AO2 P0000 T00940083

More Conditions Fewer Conditions

10-Day Weather Forecast

Almanac

Astronomi

Oct. 31, 2014 Oppgang Nedgang
Virkelig tid
Tussmørke
Nautisk skumring
Astronomisk skumring
Månen
Lengde av synlig lys
Dagens lengde
Tomorrow will be .
, % of the Moon is Illuminated

Dagens maks og min

State Highs State Lows

Community

WunderPhotos

Upload Photos

1,766,640 photos uploaded!

WunderBlogs® & News

Nearby

Luftkvalitet

  Luftkvalitet AQ Indeks Forurensing
Not available.

Snødybde

Stasjon Depth Høyde over havet

Earthquake Activity

By Distance Mag. Time & Date
Minimum magnitude displayed is 2.5.

Coastal Water Temperatures

Sted Temperatur

Nearby Weather Stations